sensor_id;sensor_type;location;lat;lon;timestamp;pressure;altitude;pressure_sealevel;temperature;humidity
75359;BME280;64046;51.978;5.934;2024-02-16T00:00:02;100913.75;;;17.27;83.19
75359;BME280;64046;51.978;5.934;2024-02-16T00:02:38;100912.28;;;17.10;83.38
75359;BME280;64046;51.978;5.934;2024-02-16T00:05:09;100914.81;;;17.11;83.39
75359;BME280;64046;51.978;5.934;2024-02-16T00:07:39;100907.00;;;17.10;83.04
75359;BME280;64046;51.978;5.934;2024-02-16T00:10:12;100910.38;;;16.99;83.63
75359;BME280;64046;51.978;5.934;2024-02-16T00:12:44;100911.25;;;17.00;83.58
75359;BME280;64046;51.978;5.934;2024-02-16T00:15:16;100908.78;;;17.22;82.74
75359;BME280;64046;51.978;5.934;2024-02-16T00:17:46;100915.16;;;17.07;82.70
75359;BME280;64046;51.978;5.934;2024-02-16T00:20:15;100911.34;;;17.11;82.51
75359;BME280;64046;51.978;5.934;2024-02-16T00:22:47;100907.44;;;17.04;82.49
75359;BME280;64046;51.978;5.934;2024-02-16T00:25:17;100906.66;;;17.02;82.70
75359;BME280;64046;51.978;5.934;2024-02-16T00:27:47;100904.34;;;16.97;82.80
75359;BME280;64046;51.978;5.934;2024-02-16T00:30:19;100894.28;;;17.15;82.22
75359;BME280;64046;51.978;5.934;2024-02-16T00:32:49;100898.13;;;16.98;82.42
75359;BME280;64046;51.978;5.934;2024-02-16T00:35:19;100891.78;;;17.01;82.21
75359;BME280;64046;51.978;5.934;2024-02-16T00:37:49;100890.78;;;17.02;81.93
75359;BME280;64046;51.978;5.934;2024-02-16T00:40:18;100892.81;;;16.98;81.83
75359;BME280;64046;51.978;5.934;2024-02-16T00:42:49;100887.94;;;16.92;82.08
75359;BME280;64046;51.978;5.934;2024-02-16T00:45:21;100884.97;;;17.09;81.74
75359;BME280;64046;51.978;5.934;2024-02-16T00:47:50;100884.44;;;16.91;81.82
75359;BME280;64046;51.978;5.934;2024-02-16T00:50:19;100888.22;;;16.87;81.90
75359;BME280;64046;51.978;5.934;2024-02-16T00:52:50;100883.03;;;16.86;81.86
75359;BME280;64046;51.978;5.934;2024-02-16T00:55:19;100885.69;;;16.86;81.80
75359;BME280;64046;51.978;5.934;2024-02-16T00:57:48;100884.66;;;16.88;81.52
75359;BME280;64046;51.978;5.934;2024-02-16T01:00:21;100884.22;;;16.94;81.47
75359;BME280;64046;51.978;5.934;2024-02-16T01:02:50;100884.56;;;16.90;81.50
75359;BME280;64046;51.978;5.934;2024-02-16T01:05:20;100876.63;;;16.90;81.46
75359;BME280;64046;51.978;5.934;2024-02-16T01:07:49;100876.19;;;16.96;81.16
75359;BME280;64046;51.978;5.934;2024-02-16T01:10:19;100879.69;;;16.97;81.11
75359;BME280;64046;51.978;5.934;2024-02-16T01:12:49;100875.47;;;16.94;81.39
75359;BME280;64046;51.978;5.934;2024-02-16T01:15:21;100878.50;;;17.14;80.42
75359;BME280;64046;51.978;5.934;2024-02-16T01:17:50;100873.66;;;16.94;81.11
75359;BME280;64046;51.978;5.934;2024-02-16T01:20:20;100863.16;;;16.93;81.20
75359;BME280;64046;51.978;5.934;2024-02-16T01:22:49;100865.81;;;16.93;81.08
75359;BME280;64046;51.978;5.934;2024-02-16T01:25:19;100861.56;;;16.90;81.29
75359;BME280;64046;51.978;5.934;2024-02-16T01:27:48;100857.41;;;16.86;81.31
75359;BME280;64046;51.978;5.934;2024-02-16T01:30:18;100854.78;;;16.86;81.43
75359;BME280;64046;51.978;5.934;2024-02-16T01:32:50;100852.78;;;17.03;80.87
75359;BME280;64046;51.978;5.934;2024-02-16T01:35:19;100853.22;;;16.84;81.27
75359;BME280;64046;51.978;5.934;2024-02-16T01:37:49;100851.84;;;16.78;80.99
75359;BME280;64046;51.978;5.934;2024-02-16T01:40:18;100844.13;;;16.75;81.02
75359;BME280;64046;51.978;5.934;2024-02-16T01:42:48;100847.16;;;16.69;81.20
75359;BME280;64046;51.978;5.934;2024-02-16T01:45:17;100856.81;;;16.70;81.00
75359;BME280;64046;51.978;5.934;2024-02-16T01:47:50;100850.25;;;16.75;81.20
75359;BME280;64046;51.978;5.934;2024-02-16T01:50:23;100846.94;;;16.85;80.60
75359;BME280;64046;51.978;5.934;2024-02-16T01:52:52;100844.03;;;16.64;81.00
75359;BME280;64046;51.978;5.934;2024-02-16T01:55:22;100847.41;;;16.66;81.11
75359;BME280;64046;51.978;5.934;2024-02-16T01:57:58;100848.03;;;16.82;80.64
75359;BME280;64046;51.978;5.934;2024-02-16T02:00:29;100846.56;;;16.65;80.41
75359;BME280;64046;51.978;5.934;2024-02-16T02:03:01;100845.28;;;16.84;80.06
75359;BME280;64046;51.978;5.934;2024-02-16T02:05:32;100849.59;;;16.85;80.09
75359;BME280;64046;51.978;5.934;2024-02-16T02:08:09;100841.03;;;16.94;79.26
75359;BME280;64046;51.978;5.934;2024-02-16T02:10:38;100834.81;;;16.69;80.11
75359;BME280;64046;51.978;5.934;2024-02-16T02:13:08;100840.00;;;16.71;80.11
75359;BME280;64046;51.978;5.934;2024-02-16T02:15:37;100828.44;;;16.72;79.77
75359;BME280;64046;51.978;5.934;2024-02-16T02:18:09;100840.28;;;16.92;79.21
75359;BME280;64046;51.978;5.934;2024-02-16T02:20:39;100830.03;;;16.74;79.75
75359;BME280;64046;51.978;5.934;2024-02-16T02:23:11;100828.88;;;16.91;79.28
75359;BME280;64046;51.978;5.934;2024-02-16T02:25:41;100825.06;;;16.70;79.69
75359;BME280;64046;51.978;5.934;2024-02-16T02:28:10;100824.84;;;16.73;79.65
75359;BME280;64046;51.978;5.934;2024-02-16T02:30:40;100820.50;;;16.72;79.57
75359;BME280;64046;51.978;5.934;2024-02-16T02:33:11;100825.91;;;16.70;79.53
75359;BME280;64046;51.978;5.934;2024-02-16T02:35:40;100830.25;;;16.71;79.21
75359;BME280;64046;51.978;5.934;2024-02-16T02:38:12;100811.41;;;16.89;78.90
75359;BME280;64046;51.978;5.934;2024-02-16T02:40:42;100807.25;;;16.72;79.21
75359;BME280;64046;51.978;5.934;2024-02-16T02:43:11;100805.59;;;16.71;79.55
75359;BME280;64046;51.978;5.934;2024-02-16T02:45:42;100802.50;;;16.90;79.26
75359;BME280;64046;51.978;5.934;2024-02-16T02:48:12;100812.56;;;16.72;79.35
75359;BME280;64046;51.978;5.934;2024-02-16T02:50:41;100806.44;;;16.71;79.42
75359;BME280;64046;51.978;5.934;2024-02-16T02:53:13;100813.09;;;16.90;78.84
75359;BME280;64046;51.978;5.934;2024-02-16T02:55:44;100808.47;;;16.68;79.51
75359;BME280;64046;51.978;5.934;2024-02-16T02:58:13;100805.06;;;16.66;79.36
75359;BME280;64046;51.978;5.934;2024-02-16T03:00:44;100800.09;;;16.74;79.21
75359;BME280;64046;51.978;5.934;2024-02-16T03:03:13;100804.50;;;16.73;79.01
75359;BME280;64046;51.978;5.934;2024-02-16T03:05:43;100789.72;;;16.71;79.35
75359;BME280;64046;51.978;5.934;2024-02-16T03:08:15;100786.53;;;16.91;78.79
75359;BME280;64046;51.978;5.934;2024-02-16T03:10:46;100792.97;;;16.74;78.95
75359;BME280;64046;51.978;5.934;2024-02-16T03:13:15;100787.56;;;16.76;78.76
75359;BME280;64046;51.978;5.934;2024-02-16T03:15:45;100783.97;;;16.77;78.71
75359;BME280;64046;51.978;5.934;2024-02-16T03:18:14;100782.50;;;16.73;78.94
75359;BME280;64046;51.978;5.934;2024-02-16T03:20:44;100778.91;;;16.74;78.53
75359;BME280;64046;51.978;5.934;2024-02-16T03:23:18;100778.25;;;16.96;77.89
75359;BME280;64046;51.978;5.934;2024-02-16T03:25:47;100783.03;;;16.78;78.29
75359;BME280;64046;51.978;5.934;2024-02-16T03:28:17;100773.28;;;16.78;78.64
75359;BME280;64046;51.978;5.934;2024-02-16T03:30:47;100768.63;;;16.82;78.30
75359;BME280;64046;51.978;5.934;2024-02-16T03:33:16;100772.00;;;16.84;78.13
75359;BME280;64046;51.978;5.934;2024-02-16T03:35:46;100773.94;;;16.82;77.98
75359;BME280;64046;51.978;5.934;2024-02-16T03:38:18;100776.94;;;17.02;77.61
75359;BME280;64046;51.978;5.934;2024-02-16T03:40:47;100783.53;;;16.83;78.08
75359;BME280;64046;51.978;5.934;2024-02-16T03:43:17;100780.78;;;16.85;77.85
75359;BME280;64046;51.978;5.934;2024-02-16T03:45:46;100779.84;;;16.86;77.97
75359;BME280;64046;51.978;5.934;2024-02-16T03:48:15;100774.66;;;16.84;78.15
75359;BME280;64046;51.978;5.934;2024-02-16T03:50:46;100772.94;;;16.83;78.09
75359;BME280;64046;51.978;5.934;2024-02-16T03:53:18;100770.94;;;17.00;77.39
75359;BME280;64046;51.978;5.934;2024-02-16T03:55:47;100770.75;;;16.77;77.67
75359;BME280;64046;51.978;5.934;2024-02-16T03:58:16;100780.63;;;16.75;77.84
75359;BME280;64046;51.978;5.934;2024-02-16T04:00:46;100772.25;;;16.68;77.95
75359;BME280;64046;51.978;5.934;2024-02-16T04:03:16;100771.31;;;16.69;78.23
75359;BME280;64046;51.978;5.934;2024-02-16T04:05:45;100762.00;;;16.64;78.42
75359;BME280;64046;51.978;5.934;2024-02-16T04:08:17;100777.19;;;16.86;77.94
75359;BME280;64046;51.978;5.934;2024-02-16T04:10:46;100779.34;;;16.68;77.97
75359;BME280;64046;51.978;5.934;2024-02-16T04:13:16;100778.59;;;16.66;77.97
75359;BME280;64046;51.978;5.934;2024-02-16T04:15:45;100783.66;;;16.69;77.99
75359;BME280;64046;51.978;5.934;2024-02-16T04:18:15;100774.91;;;16.68;77.67
75359;BME280;64046;51.978;5.934;2024-02-16T04:20:45;100779.34;;;16.68;77.85
75359;BME280;64046;51.978;5.934;2024-02-16T04:23:17;100774.16;;;16.66;78.20
75359;BME280;64046;51.978;5.934;2024-02-16T04:25:46;100774.25;;;16.65;78.21
75359;BME280;64046;51.978;5.934;2024-02-16T04:28:15;100775.22;;;16.64;78.29
75359;BME280;64046;51.978;5.934;2024-02-16T04:30:45;100776.06;;;16.64;78.07
75359;BME280;64046;51.978;5.934;2024-02-16T04:33:14;100778.00;;;16.62;78.11
75359;BME280;64046;51.978;5.934;2024-02-16T04:35:43;100787.59;;;16.63;78.02
75359;BME280;64046;51.978;5.934;2024-02-16T04:38:19;100791.59;;;16.82;77.71
75359;BME280;64046;51.978;5.934;2024-02-16T04:40:48;100784.94;;;16.63;78.01
75359;BME280;64046;51.978;5.934;2024-02-16T04:43:18;100788.66;;;16.60;78.32
75359;BME280;64046;51.978;5.934;2024-02-16T04:45:47;100789.84;;;16.56;78.70
75359;BME280;64046;51.978;5.934;2024-02-16T04:48:16;100787.31;;;16.55;78.83
75359;BME280;64046;51.978;5.934;2024-02-16T04:50:46;100790.69;;;16.57;78.84
75359;BME280;64046;51.978;5.934;2024-02-16T04:53:15;100784.66;;;16.55;78.91
75359;BME280;64046;51.978;5.934;2024-02-16T04:55:47;100782.84;;;16.68;78.69
75359;BME280;64046;51.978;5.934;2024-02-16T04:58:17;100777.78;;;16.52;79.22
75359;BME280;64046;51.978;5.934;2024-02-16T05:00:46;100776.09;;;16.51;79.23
75359;BME280;64046;51.978;5.934;2024-02-16T05:03:17;100783.28;;;16.62;79.28
75359;BME280;64046;51.978;5.934;2024-02-16T05:05:46;100773.56;;;16.37;80.37
75359;BME280;64046;51.978;5.934;2024-02-16T05:08:18;100769.53;;;16.31;80.76
75359;BME280;64046;51.978;5.934;2024-02-16T05:10:50;100768.16;;;16.51;80.32
75359;BME280;64046;51.978;5.934;2024-02-16T05:13:19;100766.56;;;16.36;80.60
75359;BME280;64046;51.978;5.934;2024-02-16T05:15:48;100780.22;;;16.42;80.45
75359;BME280;64046;51.978;5.934;2024-02-16T05:18:21;100772.88;;;16.59;79.75
75359;BME280;64046;51.978;5.934;2024-02-16T05:20:51;100775.75;;;16.56;79.51
75359;BME280;64046;51.978;5.934;2024-02-16T05:23:20;100780.00;;;16.58;79.44
75359;BME280;64046;51.978;5.934;2024-02-16T05:25:52;100776.03;;;16.77;78.77
75359;BME280;64046;51.978;5.934;2024-02-16T05:28:22;100781.56;;;16.61;79.24
75359;BME280;64046;51.978;5.934;2024-02-16T05:30:52;100772.78;;;16.60;79.36
75359;BME280;64046;51.978;5.934;2024-02-16T05:33:21;100776.19;;;16.63;79.23
75359;BME280;64046;51.978;5.934;2024-02-16T05:35:51;100775.34;;;16.62;79.38
75359;BME280;64046;51.978;5.934;2024-02-16T05:38:24;100775.13;;;16.65;79.32
75359;BME280;64046;51.978;5.934;2024-02-16T05:41:09;100774.75;;;16.83;78.99
75359;BME280;64046;51.978;5.934;2024-02-16T05:43:42;100776.25;;;16.74;79.50
75359;BME280;64046;51.978;5.934;2024-02-16T05:46:12;100768.63;;;16.82;79.21
75359;BME280;64046;51.978;5.934;2024-02-16T05:48:42;100764.81;;;16.73;79.20
75359;BME280;64046;51.978;5.934;2024-02-16T05:51:12;100767.53;;;16.85;79.05
75359;BME280;64046;51.978;5.934;2024-02-16T05:53:42;100768.44;;;16.72;79.26
75359;BME280;64046;51.978;5.934;2024-02-16T05:56:16;100772.56;;;16.89;78.96
75359;BME280;64046;51.978;5.934;2024-02-16T05:58:45;100772.88;;;16.72;79.33
75359;BME280;64046;51.978;5.934;2024-02-16T06:01:16;100774.56;;;16.73;79.34
75359;BME280;64046;51.978;5.934;2024-02-16T06:03:45;100770.09;;;16.73;79.77
75359;BME280;64046;51.978;5.934;2024-02-16T06:06:15;100770.22;;;16.72;79.75
75359;BME280;64046;51.978;5.934;2024-02-16T06:08:44;100772.97;;;16.70;79.70
75359;BME280;64046;51.978;5.934;2024-02-16T06:11:16;100776.03;;;16.90;79.35
75359;BME280;64046;51.978;5.934;2024-02-16T06:13:45;100765.03;;;16.70;80.00
75359;BME280;64046;51.978;5.934;2024-02-16T06:16:16;100776.16;;;16.75;79.67
75359;BME280;64046;51.978;5.934;2024-02-16T06:18:46;100777.22;;;16.73;79.95
75359;BME280;64046;51.978;5.934;2024-02-16T06:21:15;100786.44;;;16.67;80.25
75359;BME280;64046;51.978;5.934;2024-02-16T06:23:45;100777.53;;;16.68;80.17
75359;BME280;64046;51.978;5.934;2024-02-16T06:26:16;100785.00;;;16.87;79.90
75359;BME280;64046;51.978;5.934;2024-02-16T06:28:46;100790.34;;;16.61;80.50
75359;BME280;64046;51.978;5.934;2024-02-16T06:31:16;100795.41;;;16.65;81.00
75359;BME280;64046;51.978;5.934;2024-02-16T06:33:45;100790.03;;;16.66;80.69
75359;BME280;64046;51.978;5.934;2024-02-16T06:36:14;100797.78;;;16.69;80.66
75359;BME280;64046;51.978;5.934;2024-02-16T06:38:44;100799.22;;;16.73;80.74
75359;BME280;64046;51.978;5.934;2024-02-16T06:41:16;100802.41;;;16.78;80.35
75359;BME280;64046;51.978;5.934;2024-02-16T06:43:45;100805.56;;;16.84;80.55
75359;BME280;64046;51.978;5.934;2024-02-16T06:46:14;100802.69;;;16.87;80.47
75359;BME280;64046;51.978;5.934;2024-02-16T06:48:44;100805.88;;;16.92;80.41
75359;BME280;64046;51.978;5.934;2024-02-16T06:51:13;100809.16;;;16.95;80.33
75359;BME280;64046;51.978;5.934;2024-02-16T06:53:42;100811.72;;;16.97;80.58
75359;BME280;64046;51.978;5.934;2024-02-16T06:56:12;100821.84;;;17.03;80.34
75359;BME280;64046;51.978;5.934;2024-02-16T06:58:44;100820.41;;;17.23;79.65
75359;BME280;64046;51.978;5.934;2024-02-16T07:01:16;100816.41;;;17.18;79.92
75359;BME280;64046;51.978;5.934;2024-02-16T07:03:46;100818.78;;;17.09;80.09
75359;BME280;64046;51.978;5.934;2024-02-16T07:06:17;100819.50;;;17.11;80.12
75359;BME280;64046;51.978;5.934;2024-02-16T07:08:46;100824.34;;;17.18;80.20
75359;BME280;64046;51.978;5.934;2024-02-16T07:11:15;100830.50;;;17.18;80.33
75359;BME280;64046;51.978;5.934;2024-02-16T07:13:49;100824.19;;;17.32;79.83
75359;BME280;64046;51.978;5.934;2024-02-16T07:16:19;100834.00;;;17.19;80.42
75359;BME280;64046;51.978;5.934;2024-02-16T07:18:48;100837.88;;;17.26;80.26
75359;BME280;64046;51.978;5.934;2024-02-16T07:21:18;100844.78;;;17.28;80.17
75359;BME280;64046;51.978;5.934;2024-02-16T07:23:49;100842.13;;;17.28;80.33
75359;BME280;64046;51.978;5.934;2024-02-16T07:26:18;100849.22;;;17.28;80.38
75359;BME280;64046;51.978;5.934;2024-02-16T07:28:50;100853.28;;;17.45;80.22
75359;BME280;64046;51.978;5.934;2024-02-16T07:31:20;100856.13;;;17.18;82.19
75359;BME280;64046;51.978;5.934;2024-02-16T07:33:49;100854.06;;;17.34;81.09
75359;BME280;64046;51.978;5.934;2024-02-16T07:36:19;100858.31;;;17.37;80.63
75359;BME280;64046;51.978;5.934;2024-02-16T07:38:48;100859.78;;;17.41;80.25
75359;BME280;64046;51.978;5.934;2024-02-16T07:41:17;100866.03;;;17.40;80.39
75359;BME280;64046;51.978;5.934;2024-02-16T07:43:47;100866.63;;;17.43;80.35
75359;BME280;64046;51.978;5.934;2024-02-16T07:46:20;100870.81;;;17.59;79.86
75359;BME280;64046;51.978;5.934;2024-02-16T07:48:50;100858.59;;;17.45;80.45
75359;BME280;64046;51.978;5.934;2024-02-16T07:51:19;100865.81;;;17.43;80.59
75359;BME280;64046;51.978;5.934;2024-02-16T07:53:48;100863.03;;;17.44;80.42
75359;BME280;64046;51.978;5.934;2024-02-16T07:56:17;100860.28;;;17.46;80.55
75359;BME280;64046;51.978;5.934;2024-02-16T07:58:47;100866.53;;;17.45;80.68
75359;BME280;64046;51.978;5.934;2024-02-16T08:01:19;100871.22;;;17.66;80.48
75359;BME280;64046;51.978;5.934;2024-02-16T08:03:49;100881.88;;;17.53;80.78
75359;BME280;64046;51.978;5.934;2024-02-16T08:06:19;100885.47;;;17.52;80.94
75359;BME280;64046;51.978;5.934;2024-02-16T08:08:53;100889.94;;;17.51;80.65
75359;BME280;64046;51.978;5.934;2024-02-16T08:11:23;100892.38;;;17.54;80.96
75359;BME280;64046;51.978;5.934;2024-02-16T08:13:53;100899.38;;;17.55;80.80
75359;BME280;64046;51.978;5.934;2024-02-16T08:16:29;100891.84;;;17.73;80.24
75359;BME280;64046;51.978;5.934;2024-02-16T08:18:58;100899.97;;;17.59;80.86
75359;BME280;64046;51.978;5.934;2024-02-16T08:21:27;100897.31;;;17.59;80.97
75359;BME280;64046;51.978;5.934;2024-02-16T08:23:57;100912.38;;;17.58;81.28
75359;BME280;64046;51.978;5.934;2024-02-16T08:26:27;100916.06;;;17.69;81.02
75359;BME280;64046;51.978;5.934;2024-02-16T08:28:56;100910.97;;;17.66;81.28
75359;BME280;64046;51.978;5.934;2024-02-16T08:31:25;100913.28;;;17.70;81.30
75359;BME280;64046;51.978;5.934;2024-02-16T08:33:57;100920.72;;;17.89;80.95
75359;BME280;64046;51.978;5.934;2024-02-16T08:36:27;100911.28;;;17.74;81.21
75359;BME280;64046;51.978;5.934;2024-02-16T08:38:56;100910.94;;;17.78;81.22
75359;BME280;64046;51.978;5.934;2024-02-16T08:41:23;100913.34;;;17.81;81.23
75359;BME280;64046;51.978;5.934;2024-02-16T08:43:53;100910.59;;;17.83;81.24
75359;BME280;64046;51.978;5.934;2024-02-16T08:46:23;100918.31;;;17.86;81.33
75359;BME280;64046;51.978;5.934;2024-02-16T08:48:53;100911.22;;;17.87;81.51
75359;BME280;64046;51.978;5.934;2024-02-16T08:51:26;100903.38;;;18.09;80.98
75359;BME280;64046;51.978;5.934;2024-02-16T08:53:55;100915.75;;;17.97;81.51
75359;BME280;64046;51.978;5.934;2024-02-16T08:56:24;100926.47;;;17.96;81.80
75359;BME280;64046;51.978;5.934;2024-02-16T08:58:54;100927.94;;;18.00;81.98
75359;BME280;64046;51.978;5.934;2024-02-16T09:01:30;100934.81;;;18.27;81.03
75359;BME280;64046;51.978;5.934;2024-02-16T09:04:00;100939.94;;;18.17;81.67
75359;BME280;64046;51.978;5.934;2024-02-16T09:06:32;100940.59;;;18.32;81.55
75359;BME280;64046;51.978;5.934;2024-02-16T09:09:02;100947.69;;;18.20;82.12
75359;BME280;64046;51.978;5.934;2024-02-16T09:11:33;100944.91;;;18.22;81.91
75359;BME280;64046;51.978;5.934;2024-02-16T09:14:02;100953.81;;;18.21;82.30
75359;BME280;64046;51.978;5.934;2024-02-16T09:16:32;100961.88;;;18.19;82.58
75359;BME280;64046;51.978;5.934;2024-02-16T09:19:01;100962.63;;;18.21;82.57
75359;BME280;64046;51.978;5.934;2024-02-16T09:21:33;100976.31;;;18.39;81.92
75359;BME280;64046;51.978;5.934;2024-02-16T09:24:03;100978.19;;;18.26;82.43
75359;BME280;64046;51.978;5.934;2024-02-16T09:26:36;100984.56;;;18.23;82.54
75359;BME280;64046;51.978;5.934;2024-02-16T09:29:06;100984.69;;;18.22;82.56
75359;BME280;64046;51.978;5.934;2024-02-16T09:31:35;101002.31;;;18.23;82.71
75359;BME280;64046;51.978;5.934;2024-02-16T09:34:06;100997.72;;;18.25;82.65
75359;BME280;64046;51.978;5.934;2024-02-16T09:36:38;100997.31;;;18.42;82.51
75359;BME280;64046;51.978;5.934;2024-02-16T09:39:07;101001.84;;;18.29;82.94
75359;BME280;64046;51.978;5.934;2024-02-16T09:41:40;101003.59;;;18.41;82.72
75359;BME280;64046;51.978;5.934;2024-02-16T09:44:12;101006.91;;;18.32;82.89
75359;BME280;64046;51.978;5.934;2024-02-16T09:46:42;101017.53;;;18.32;83.15
75359;BME280;64046;51.978;5.934;2024-02-16T09:49:11;101029.22;;;18.29;83.46
75359;BME280;64046;51.978;5.934;2024-02-16T09:51:45;101026.06;;;18.48;83.18
75359;BME280;64046;51.978;5.934;2024-02-16T09:54:14;101025.50;;;18.32;83.68
75359;BME280;64046;51.978;5.934;2024-02-16T09:56:44;101030.44;;;18.37;83.51
75359;BME280;64046;51.978;5.934;2024-02-16T09:59:15;101028.91;;;18.34;83.80
75359;BME280;64046;51.978;5.934;2024-02-16T10:01:44;101029.72;;;18.35;84.07
75359;BME280;64046;51.978;5.934;2024-02-16T10:04:15;101039.22;;;18.50;84.07
75359;BME280;64046;51.978;5.934;2024-02-16T10:06:50;101038.50;;;18.59;83.39
75359;BME280;64046;51.978;5.934;2024-02-16T10:09:24;101036.59;;;18.61;83.65
75359;BME280;64046;51.978;5.934;2024-02-16T10:11:55;101037.84;;;18.44;84.20
75359;BME280;64046;51.978;5.934;2024-02-16T10:14:24;101042.09;;;18.47;84.30
75359;BME280;64046;51.978;5.934;2024-02-16T10:17:01;101049.94;;;18.73;83.45
75359;BME280;64046;51.978;5.934;2024-02-16T10:19:31;101046.72;;;18.56;84.63
75359;BME280;64046;51.978;5.934;2024-02-16T10:22:09;101047.97;;;18.75;84.03
75359;BME280;64046;51.978;5.934;2024-02-16T10:24:40;101052.19;;;18.66;84.34
75359;BME280;64046;51.978;5.934;2024-02-16T10:27:14;101062.59;;;18.80;84.02
75359;BME280;64046;51.978;5.934;2024-02-16T10:29:44;101068.72;;;18.70;84.69
75359;BME280;64046;51.978;5.934;2024-02-16T10:32:15;101075.44;;;18.62;84.56
75359;BME280;64046;51.978;5.934;2024-02-16T10:34:45;101076.06;;;18.66;84.94
75359;BME280;64046;51.978;5.934;2024-02-16T10:37:18;101079.72;;;18.76;84.74
75359;BME280;64046;51.978;5.934;2024-02-16T10:39:49;101076.66;;;18.70;85.11
75359;BME280;64046;51.978;5.934;2024-02-16T10:42:20;101090.66;;;18.60;85.25
75359;BME280;64046;51.978;5.934;2024-02-16T10:44:53;101099.22;;;18.64;84.91
75359;BME280;64046;51.978;5.934;2024-02-16T10:47:22;101100.50;;;18.58;85.14
75359;BME280;64046;51.978;5.934;2024-02-16T10:49:52;101104.16;;;18.57;85.41
75359;BME280;64046;51.978;5.934;2024-02-16T10:52:24;101099.25;;;18.75;85.38
75359;BME280;64046;51.978;5.934;2024-02-16T10:54:54;101106.78;;;18.57;86.08
75359;BME280;64046;51.978;5.934;2024-02-16T10:57:23;101114.59;;;18.72;85.89
75359;BME280;64046;51.978;5.934;2024-02-16T10:59:53;101116.22;;;18.61;86.80
75359;BME280;64046;51.978;5.934;2024-02-16T11:02:23;101118.38;;;18.56;86.88
75359;BME280;64046;51.978;5.934;2024-02-16T11:04:53;101114.25;;;18.52;87.38
75359;BME280;64046;51.978;5.934;2024-02-16T11:07:25;101124.56;;;18.68;87.05
75359;BME280;64046;51.978;5.934;2024-02-16T11:09:59;101138.72;;;18.68;87.25
75359;BME280;64046;51.978;5.934;2024-02-16T11:12:33;101134.13;;;18.71;87.61
75359;BME280;64046;51.978;5.934;2024-02-16T11:15:08;101139.78;;;18.66;88.16
75359;BME280;64046;51.978;5.934;2024-02-16T11:17:37;101135.94;;;18.46;89.34
75359;BME280;64046;51.978;5.934;2024-02-16T11:20:08;101143.03;;;18.45;90.37
75359;BME280;64046;51.978;5.934;2024-02-16T11:22:40;101149.59;;;18.53;91.05
75359;BME280;64046;51.978;5.934;2024-02-16T11:25:10;101146.88;;;18.41;91.53
75359;BME280;64046;51.978;5.934;2024-02-16T11:27:39;101165.44;;;18.41;91.77
75359;BME280;64046;51.978;5.934;2024-02-16T11:30:11;101159.91;;;18.44;92.54
75359;BME280;64046;51.978;5.934;2024-02-16T11:32:42;101165.22;;;18.44;93.12
75359;BME280;64046;51.978;5.934;2024-02-16T11:35:12;101164.84;;;18.25;94.74
75359;BME280;64046;51.978;5.934;2024-02-16T11:37:45;101183.94;;;18.30;95.38
75359;BME280;64046;51.978;5.934;2024-02-16T11:40:15;101174.31;;;18.03;97.21
75359;BME280;64046;51.978;5.934;2024-02-16T11:42:45;101177.31;;;17.98;97.99
75359;BME280;64046;51.978;5.934;2024-02-16T11:45:14;101180.06;;;17.97;98.88
75359;BME280;64046;51.978;5.934;2024-02-16T11:47:44;101189.06;;;17.94;99.49
75359;BME280;64046;51.978;5.934;2024-02-16T11:50:13;101189.59;;;17.87;100.00
75359;BME280;64046;51.978;5.934;2024-02-16T11:52:47;101184.94;;;18.03;100.00
75359;BME280;64046;51.978;5.934;2024-02-16T11:55:16;101195.50;;;17.77;100.00
75359;BME280;64046;51.978;5.934;2024-02-16T11:57:46;101185.72;;;17.65;100.00
75359;BME280;64046;51.978;5.934;2024-02-16T12:00:17;101196.03;;;17.57;100.00
75359;BME280;64046;51.978;5.934;2024-02-16T12:02:46;101196.25;;;17.54;100.00
75359;BME280;64046;51.978;5.934;2024-02-16T12:05:15;101203.22;;;17.55;100.00
75359;BME280;64046;51.978;5.934;2024-02-16T12:07:48;101201.56;;;17.67;100.00
75359;BME280;64046;51.978;5.934;2024-02-16T12:10:19;101187.00;;;17.59;100.00
75359;BME280;64046;51.978;5.934;2024-02-16T12:12:49;101189.97;;;17.55;100.00
75359;BME280;64046;51.978;5.934;2024-02-16T12:15:18;101207.78;;;17.53;100.00
75359;BME280;64046;51.978;5.934;2024-02-16T12:17:58;101204.72;;;17.72;100.00
75359;BME280;64046;51.978;5.934;2024-02-16T12:20:29;101203.84;;;17.45;100.00
75359;BME280;64046;51.978;5.934;2024-02-16T12:23:10;101202.91;;;17.72;100.00
75359;BME280;64046;51.978;5.934;2024-02-16T12:25:40;101193.88;;;17.49;100.00
75359;BME280;64046;51.978;5.934;2024-02-16T12:28:09;101227.06;;;17.55;100.00
75359;BME280;64046;51.978;5.934;2024-02-16T12:30:38;101240.19;;;17.56;100.00
75359;BME280;64046;51.978;5.934;2024-02-16T12:33:08;101255.22;;;17.43;100.00
75359;BME280;64046;51.978;5.934;2024-02-16T12:35:37;101251.22;;;17.50;100.00
75359;BME280;64046;51.978;5.934;2024-02-16T12:38:09;101240.53;;;17.64;100.00
75359;BME280;64046;51.978;5.934;2024-02-16T12:40:39;101247.75;;;17.50;100.00
75359;BME280;64046;51.978;5.934;2024-02-16T12:43:08;101255.03;;;17.46;100.00
75359;BME280;64046;51.978;5.934;2024-02-16T12:45:39;101255.97;;;17.45;100.00
75359;BME280;64046;51.978;5.934;2024-02-16T12:48:08;101259.81;;;17.41;100.00
75359;BME280;64046;51.978;5.934;2024-02-16T12:50:40;101268.13;;;17.35;100.00
75359;BME280;64046;51.978;5.934;2024-02-16T12:53:13;101271.59;;;17.50;100.00
75359;BME280;64046;51.978;5.934;2024-02-16T12:55:43;101271.81;;;17.32;100.00
75359;BME280;64046;51.978;5.934;2024-02-16T12:58:12;101275.81;;;17.25;100.00
75359;BME280;64046;51.978;5.934;2024-02-16T13:00:41;101278.69;;;17.22;100.00
75359;BME280;64046;51.978;5.934;2024-02-16T13:03:11;101278.47;;;17.25;100.00